Time;durP1;ratioP1;P1;durP2;ratioP2;P2;SDS_P1;SDS_P2;PMS_P1;PMS_P2;Temp;Humidity;BMP_temperature;BMP_pressure;BME280_temperature;BME280_humidity;BME280_pressure;Samples;Min_cycle;Max_cycle;Signal;HPM_P1;HPM_P2
2022/03/12 00:01:08;;;;;;;0.10;0.10;;;7.00;48.80;;;;;;5074023;28;20409;-76
2022/03/12 00:03:35;;;;;;;1.00;0.95;;;7.00;48.70;;;;;;5075293;28;20755;-76
2022/03/12 00:06:03;;;;;;;0.10;0.10;;;7.00;48.50;;;;;;5072078;28;20081;-76
2022/03/12 00:08:42;;;;;;;0.10;0.10;;;7.00;48.60;;;;;;5069846;28;20028;-77
2022/03/12 00:11:10;;;;;;;3.25;2.97;;;7.00;48.70;;;;;;5073379;28;20097;-76
2022/03/12 00:13:36;;;;;;;0.10;0.10;;;7.00;48.80;;;;;;5073278;28;20494;-76
2022/03/12 00:16:03;;;;;;;0.20;0.20;;;7.00;49.00;;;;;;5068292;28;20497;-77
2022/03/12 00:18:30;;;;;;;0.10;0.10;;;7.00;48.90;;;;;;5073544;28;20101;-76
2022/03/12 00:21:01;;;;;;;0.50;0.50;;;6.80;49.00;;;;;;5073113;28;20027;-76
2022/03/12 00:23:29;;;;;;;1.00;1.00;;;6.90;49.40;;;;;;5069842;28;20025;-76
2022/03/12 00:25:55;;;;;;;4.22;2.15;;;6.90;49.40;;;;;;5073022;28;20024;-76
2022/03/12 00:28:22;;;;;;;0.10;0.10;;;6.90;49.40;;;;;;5068904;28;20127;-76
2022/03/12 00:30:49;;;;;;;0.10;0.10;;;6.90;49.40;;;;;;5072988;28;20521;-77
2022/03/12 00:33:20;;;;;;;0.45;0.45;;;6.80;49.60;;;;;;5070816;28;20037;-76
2022/03/12 00:35:49;;;;;;;0.43;0.43;;;6.80;49.80;;;;;;5072249;28;20020;-76
2022/03/12 00:38:17;;;;;;;0.10;0.10;;;6.80;50.10;;;;;;5070773;28;20047;-75
2022/03/12 00:40:43;;;;;;;0.10;0.10;;;6.70;50.10;;;;;;5070906;28;20112;-76
2022/03/12 00:43:10;;;;;;;6.93;1.98;;;6.80;50.20;;;;;;5070983;28;20178;-76
2022/03/12 00:45:37;;;;;;;0.10;0.10;;;6.80;50.00;;;;;;5072049;28;20085;-76
2022/03/12 00:48:04;;;;;;;0.10;0.10;;;6.80;49.70;;;;;;5068379;28;20040;-76
2022/03/12 00:50:30;;;;;;;0.10;0.10;;;6.80;49.80;;;;;;5068398;28;20021;-77
2022/03/12 00:52:56;;;;;;;0.10;0.10;;;6.80;49.80;;;;;;5072132;28;20382;-76
2022/03/12 00:55:22;;;;;;;0.10;0.10;;;6.70;50.20;;;;;;5070327;28;20028;-76
2022/03/12 00:57:48;;;;;;;0.65;0.65;;;6.80;50.40;;;;;;5074322;28;20020;-75
2022/03/12 01:00:17;;;;;;;0.10;0.10;;;6.70;50.00;;;;;;5078174;28;20471;-76
2022/03/12 01:02:43;;;;;;;1.17;1.08;;;6.80;50.30;;;;;;5071995;28;20025;-76
2022/03/12 01:05:12;;;;;;;0.20;0.20;;;6.80;50.30;;;;;;5067866;28;20024;-76
2022/03/12 01:07:38;;;;;;;0.20;0.20;;;6.80;50.30;;;;;;5071295;28;20028;-76
2022/03/12 01:10:05;;;;;;;0.43;0.43;;;6.90;50.10;;;;;;5071870;28;20104;-75
2022/03/12 01:12:31;;;;;;;0.17;0.17;;;6.90;49.90;;;;;;5066876;28;20025;-77
2022/03/12 01:14:57;;;;;;;0.15;0.15;;;6.90;50.00;;;;;;5071473;28;20024;-76
2022/03/12 01:17:23;;;;;;;0.10;0.10;;;6.90;49.80;;;;;;5073803;28;20029;-74
2022/03/12 01:19:49;;;;;;;0.20;0.20;;;6.80;49.60;;;;;;5073738;28;20070;-76
2022/03/12 01:22:20;;;;;;;0.20;0.20;;;6.80;49.50;;;;;;5068618;28;20036;-76
2022/03/12 01:24:49;;;;;;;1.48;1.40;;;6.80;49.40;;;;;;5071069;28;20036;-77
2022/03/12 01:27:16;;;;;;;5.47;4.90;;;6.80;50.10;;;;;;5071594;28;20086;-76
2022/03/12 01:29:45;;;;;;;3.15;2.65;;;6.70;50.40;;;;;;5071418;28;20478;-75
2022/03/12 01:32:11;;;;;;;0.65;0.65;;;6.70;50.90;;;;;;5067232;28;20025;-75
2022/03/12 01:34:37;;;;;;;2.28;1.75;;;6.70;50.10;;;;;;5071590;28;20037;-76
2022/03/12 01:37:03;;;;;;;0.30;0.30;;;6.70;49.40;;;;;;5071859;28;20078;-76
2022/03/12 01:39:29;;;;;;;0.10;0.10;;;6.70;50.80;;;;;;5071323;28;20029;-76
2022/03/12 01:41:55;;;;;;;1.52;1.48;;;6.70;50.30;;;;;;5064482;28;20032;-76
2022/03/12 01:44:23;;;;;;;0.15;0.15;;;6.70;48.40;;;;;;5071643;28;20426;-76
2022/03/12 01:46:49;;;;;;;2.55;1.55;;;6.60;48.40;;;;;;5070069;28;20089;-76
2022/03/12 01:49:23;;;;;;;0.10;0.10;;;6.60;48.70;;;;;;5069195;28;20036;-75
2022/03/12 01:51:52;;;;;;;0.22;0.22;;;6.60;48.60;;;;;;5071047;28;20032;-76
2022/03/12 01:54:24;;;;;;;0.10;0.10;;;6.60;48.30;;;;;;5067153;28;20025;-75
2022/03/12 01:56:51;;;;;;;0.10;0.10;;;6.60;48.10;;;;;;5064918;28;20020;-76
2022/03/12 01:59:19;;;;;;;2.30;2.15;;;6.10;47.50;;;;;;5066724;28;20048;-76
2022/03/12 02:01:46;;;;;;;0.10;0.10;;;6.70;47.60;;;;;;5069764;28;20037;-76
2022/03/12 02:04:12;;;;;;;0.10;0.10;;;6.70;47.70;;;;;;5070766;28;20028;-76
2022/03/12 02:06:45;;;;;;;0.10;0.10;;;6.80;47.50;;;;;;5068748;28;20378;-76
2022/03/12 02:09:15;;;;;;;0.17;0.17;;;6.70;47.80;;;;;;5069450;28;20115;-76
2022/03/12 02:11:49;;;;;;;0.10;0.10;;;6.70;48.00;;;;;;5070386;28;20021;-76
2022/03/12 02:14:20;;;;;;;8.05;3.45;;;6.70;47.60;;;;;;5069885;28;20020;-77
2022/03/12 02:16:50;;;;;;;2.63;1.75;;;6.70;47.70;;;;;;5069348;28;20056;-76
2022/03/12 02:19:17;;;;;;;0.30;0.30;;;6.80;47.80;;;;;;5070496;28;20094;-76
2022/03/12 02:21:49;;;;;;;0.10;0.10;;;6.70;47.60;;;;;;5070426;28;20537;-76
2022/03/12 02:24:17;;;;;;;0.10;0.10;;;6.70;47.60;;;;;;5067118;28;20123;-75
2022/03/12 02:26:44;;;;;;;0.90;0.90;;;6.80;47.40;;;;;;5070182;28;20056;-75
2022/03/12 02:29:12;;;;;;;0.10;0.10;;;6.70;47.40;;;;;;5066447;28;20021;-75
2022/03/12 02:31:47;;;;;;;0.85;0.85;;;6.70;47.80;;;;;;5068013;28;20547;-75
2022/03/12 02:34:12;;;;;;;2.25;1.88;;;6.70;47.50;;;;;;5072720;28;20054;-75
2022/03/12 02:36:40;;;;;;;0.43;0.43;;;6.60;47.50;;;;;;5070061;28;20465;-77
2022/03/12 02:39:07;;;;;;;0.10;0.10;;;6.70;47.50;;;;;;5070454;28;20038;-76
2022/03/12 02:41:33;;;;;;;0.10;0.10;;;6.50;47.30;;;;;;5063632;28;20036;-75
2022/03/12 02:43:59;;;;;;;0.75;0.75;;;6.50;47.90;;;;;;5070548;28;20115;-75
2022/03/12 02:46:29;;;;;;;6.30;2.15;;;6.50;48.00;;;;;;5069744;28;20036;-76
2022/03/12 02:48:56;;;;;;;4.57;1.75;;;6.50;48.00;;;;;;5068456;28;20489;-76
2022/03/12 02:51:22;;;;;;;0.10;0.10;;;6.50;48.10;;;;;;5068740;28;20112;-75
2022/03/12 02:53:55;;;;;;;0.10;0.10;;;6.60;48.30;;;;;;5070282;28;20046;-75
2022/03/12 02:56:21;;;;;;;0.10;0.10;;;6.60;48.30;;;;;;5068195;28;20032;-76
2022/03/12 02:58:47;;;;;;;0.10;0.10;;;6.50;48.40;;;;;;5068861;28;20036;-75
2022/03/12 03:01:14;;;;;;;0.40;0.40;;;6.60;48.40;;;;;;5074739;28;20032;-74
2022/03/12 03:03:46;;;;;;;0.17;0.17;;;6.60;48.70;;;;;;5081649;28;20032;-75
2022/03/12 03:06:15;;;;;;;0.20;0.20;;;6.50;48.90;;;;;;5074643;28;20490;-75
2022/03/12 03:08:42;;;;;;;0.10;0.10;;;6.50;49.00;;;;;;5069462;28;20056;-75
2022/03/12 03:11:12;;;;;;;0.10;0.10;;;6.50;49.30;;;;;;5077975;28;20033;-75
2022/03/12 03:13:40;;;;;;;0.10;0.10;;;6.50;49.20;;;;;;5073793;28;20037;-76
2022/03/12 03:16:22;;;;;;;0.20;0.20;;;6.50;49.60;;;;;;5068838;28;20017;-76
2022/03/12 03:18:52;;;;;;;0.40;0.40;;;6.50;49.40;;;;;;5068416;28;20021;-77
2022/03/12 03:21:27;;;;;;;0.10;0.10;;;6.50;49.50;;;;;;5070599;28;20036;-77
2022/03/12 03:23:54;;;;;;;0.10;0.10;;;6.60;49.90;;;;;;5062575;28;20025;-74
2022/03/12 03:26:40;;;;;;;0.20;0.20;;;6.60;49.70;;;;;;5069620;28;20029;-75
2022/03/12 03:29:07;;;;;;;0.10;0.10;;;6.50;49.60;;;;;;5070037;28;20055;-75
2022/03/12 03:31:34;;;;;;;0.10;0.10;;;6.40;49.40;;;;;;5063597;28;20027;-74
2022/03/12 03:34:00;;;;;;;2.05;1.85;;;6.50;48.90;;;;;;5069729;28;20033;-75
2022/03/12 03:36:26;;;;;;;0.10;0.10;;;6.40;49.10;;;;;;5068716;28;20056;-74
2022/03/12 03:38:52;;;;;;;0.25;0.25;;;6.40;49.00;;;;;;5069829;28;20029;-74
2022/03/12 03:41:18;;;;;;;0.10;0.10;;;6.40;49.70;;;;;;5061964;28;20496;-75
2022/03/12 03:43:47;;;;;;;0.70;0.70;;;6.40;49.30;;;;;;5069267;28;20428;-76
2022/03/12 03:46:17;;;;;;;0.52;0.52;;;6.30;49.50;;;;;;5068271;28;20033;-75
2022/03/12 03:48:42;;;;;;;0.10;0.10;;;6.20;49.80;;;;;;5072816;28;20036;-75
2022/03/12 03:51:08;;;;;;;0.20;0.20;;;6.20;49.80;;;;;;5068023;28;20040;-75
2022/03/12 03:53:34;;;;;;;3.70;3.50;;;6.20;50.00;;;;;;5068027;28;20027;-75
2022/03/12 03:56:00;;;;;;;0.38;0.38;;;6.20;50.20;;;;;;5069354;28;20029;-75
2022/03/12 03:58:26;;;;;;;0.10;0.10;;;6.20;50.20;;;;;;5068302;28;20040;-75
2022/03/12 04:00:58;;;;;;;1.00;1.00;;;6.20;49.80;;;;;;5067476;28;20048;-75
2022/03/12 04:03:25;;;;;;;2.28;1.65;;;6.20;49.70;;;;;;5069565;28;20085;-75
2022/03/12 04:05:51;;;;;;;0.10;0.10;;;6.20;49.80;;;;;;5069246;28;20020;-76
2022/03/12 04:08:17;;;;;;;0.10;0.10;;;6.20;50.00;;;;;;5062908;28;20059;-76
2022/03/12 04:10:43;;;;;;;0.22;0.22;;;6.20;50.20;;;;;;5069650;28;20037;-74
2022/03/12 04:13:20;;;;;;;0.10;0.10;;;6.10;49.40;;;;;;5067905;28;20386;-75
2022/03/12 04:15:48;;;;;;;0.10;0.10;;;6.00;50.00;;;;;;5065532;28;20158;-75
2022/03/12 04:18:15;;;;;;;0.40;0.40;;;6.00;50.10;;;;;;5069273;28;20020;-75
2022/03/12 04:20:45;;;;;;;0.45;0.45;;;6.00;50.10;;;;;;5070594;28;20012;-77
2022/03/12 04:23:12;;;;;;;0.70;0.70;;;5.90;49.70;;;;;;5073541;28;20032;-75
2022/03/12 04:25:38;;;;;;;1.25;1.25;;;5.80;50.30;;;;;;5065648;28;20032;-75
2022/03/12 04:28:06;;;;;;;0.20;0.20;;;5.80;50.50;;;;;;5072474;28;20032;-75
2022/03/12 04:30:32;;;;;;;2.22;2.05;;;5.80;50.80;;;;;;5073218;28;20020;-75
2022/03/12 04:32:58;;;;;;;0.22;0.22;;;5.80;50.90;;;;;;5071621;28;20031;-75
2022/03/12 04:35:24;;;;;;;0.50;0.50;;;5.80;51.20;;;;;;5067919;28;20025;-76
2022/03/12 04:37:51;;;;;;;0.10;0.10;;;5.80;51.30;;;;;;5072724;28;20062;-76
2022/03/12 04:40:21;;;;;;;0.20;0.20;;;5.80;51.60;;;;;;5072593;28;20035;-76
2022/03/12 04:42:47;;;;;;;2.97;1.48;;;5.80;51.20;;;;;;5072389;28;20126;-76
2022/03/12 04:45:15;;;;;;;0.20;0.20;;;5.80;50.80;;;;;;5066170;28;20479;-76
2022/03/12 04:47:43;;;;;;;1.75;1.65;;;5.80;51.40;;;;;;5072304;28;20465;-76
2022/03/12 04:50:10;;;;;;;0.20;0.20;;;5.80;51.40;;;;;;5068287;28;20028;-76
2022/03/12 04:52:36;;;;;;;0.10;0.10;;;5.90;51.50;;;;;;5072835;28;20032;-75
2022/03/12 04:55:13;;;;;;;0.10;0.10;;;5.90;51.10;;;;;;5070188;28;20074;-75
2022/03/12 04:57:40;;;;;;;0.10;0.10;;;5.90;51.60;;;;;;5078456;28;20105;-75
2022/03/12 05:00:10;;;;;;;0.85;0.85;;;5.90;50.60;;;;;;5080755;28;20099;-75
2022/03/12 05:02:36;;;;;;;0.10;0.10;;;5.90;50.40;;;;;;5080394;28;20180;-74
2022/03/12 05:05:02;;;;;;;0.73;0.73;;;5.90;51.00;;;;;;5076757;28;20027;-75
2022/03/12 05:07:28;;;;;;;0.38;0.38;;;5.90;51.00;;;;;;5067998;28;20162;-75
2022/03/12 05:09:57;;;;;;;4.93;4.60;;;5.90;51.10;;;;;;5070606;28;20187;-76
2022/03/12 05:12:23;;;;;;;0.10;0.10;;;6.10;51.70;;;;;;5072012;28;20029;-76
2022/03/12 05:14:51;;;;;;;1.10;1.10;;;5.90;51.10;;;;;;5071506;28;20502;-76
2022/03/12 05:17:18;;;;;;;0.10;0.10;;;6.00;50.80;;;;;;5070702;28;20021;-75
2022/03/12 05:19:45;;;;;;;0.82;0.82;;;5.90;50.80;;;;;;5066205;28;20077;-76
2022/03/12 05:22:11;;;;;;;0.25;0.25;;;5.80;51.00;;;;;;5071955;28;20017;-75
2022/03/12 05:24:36;;;;;;;0.32;0.32;;;5.80;51.30;;;;;;5071690;28;20028;-75
2022/03/12 05:27:02;;;;;;;1.17;1.17;;;5.80;51.30;;;;;;5065618;28;20032;-75
2022/03/12 05:29:30;;;;;;;0.10;0.10;;;5.70;51.20;;;;;;5070113;28;20115;-76
2022/03/12 05:31:55;;;;;;;1.92;1.05;;;5.70;51.30;;;;;;5072111;28;20182;-76
2022/03/12 05:34:25;;;;;;;0.65;0.65;;;5.60;51.30;;;;;;5063812;28;20112;-76
2022/03/12 05:36:51;;;;;;;0.30;0.30;;;5.70;51.30;;;;;;5071181;28;20657;-76
2022/03/12 05:39:18;;;;;;;0.20;0.20;;;5.60;51.20;;;;;;5072068;28;20028;-76
2022/03/12 05:41:48;;;;;;;0.10;0.10;;;5.70;51.30;;;;;;5076937;28;20039;-75
2022/03/12 05:44:14;;;;;;;0.13;0.13;;;5.70;51.20;;;;;;5073748;28;20025;-76
2022/03/12 05:46:41;;;;;;;0.10;0.10;;;5.70;51.40;;;;;;5069590;28;20397;-76
2022/03/12 05:49:08;;;;;;;0.10;0.10;;;5.80;51.50;;;;;;5071462;28;20040;-76
2022/03/12 05:51:36;;;;;;;1.20;1.20;;;5.80;51.60;;;;;;5070112;28;20737;-75
2022/03/12 05:54:02;;;;;;;2.17;1.95;;;5.80;51.30;;;;;;5071749;28;20028;-76
2022/03/12 05:56:28;;;;;;;0.65;0.65;;;5.80;51.20;;;;;;5070207;28;20029;-74
2022/03/12 05:58:54;;;;;;;0.20;0.20;;;5.80;51.10;;;;;;5071933;28;20066;-75
2022/03/12 06:01:19;;;;;;;0.10;0.10;;;5.70;51.30;;;;;;5064091;28;20056;-76
2022/03/12 06:03:46;;;;;;;0.75;0.75;;;5.80;51.00;;;;;;5071748;28;20074;-76
2022/03/12 06:06:14;;;;;;;0.10;0.10;;;5.90;51.20;;;;;;5070579;28;20035;-76
2022/03/12 06:08:40;;;;;;;0.10;0.10;;;5.90;50.00;;;;;;5067273;28;20096;-76
2022/03/12 06:11:06;;;;;;;0.38;0.38;;;5.90;50.30;;;;;;5067861;28;20021;-75
2022/03/12 06:13:33;;;;;;;1.08;1.08;;;6.00;50.70;;;;;;5071008;28;20055;-76
2022/03/12 06:16:00;;;;;;;0.32;0.32;;;6.00;50.20;;;;;;5071453;28;20025;-77
2022/03/12 06:18:34;;;;;;;0.10;0.10;;;6.00;49.60;;;;;;5071366;28;20051;-75
2022/03/12 06:21:01;;;;;;;1.20;1.20;;;6.00;49.70;;;;;;5071885;28;20035;-76
2022/03/12 06:23:28;;;;;;;0.30;0.30;;;6.10;49.60;;;;;;5071809;28;20024;-75
2022/03/12 06:25:54;;;;;;;0.55;0.55;;;6.00;49.50;;;;;;5074680;28;20020;-74
2022/03/12 06:28:21;;;;;;;0.68;0.68;;;6.10;49.80;;;;;;5075194;28;20060;-75
2022/03/12 06:30:48;;;;;;;0.30;0.30;;;6.10;50.30;;;;;;5076664;28;20020;-75
2022/03/12 06:33:18;;;;;;;3.33;2.38;;;6.10;50.00;;;;;;5076308;28;20025;-75
2022/03/12 06:35:45;;;;;;;0.10;0.10;;;6.10;50.00;;;;;;5074736;28;20060;-75
2022/03/12 06:38:11;;;;;;;4.65;3.03;;;6.10;49.80;;;;;;5072722;28;20024;-75
2022/03/12 06:40:37;;;;;;;0.20;0.20;;;6.10;50.10;;;;;;5073969;28;20088;-76
2022/03/12 06:43:19;;;;;;;1.75;1.65;;;6.10;49.30;;;;;;5070063;28;20052;-74
2022/03/12 06:45:45;;;;;;;0.10;0.10;;;6.10;49.40;;;;;;5066369;28;20575;-75
2022/03/12 06:48:11;;;;;;;0.20;0.20;;;6.00;49.60;;;;;;5071364;28;20105;-75
2022/03/12 06:50:38;;;;;;;0.75;0.75;;;6.00;49.50;;;;;;5071021;28;20063;-75
2022/03/12 06:53:04;;;;;;;0.60;0.60;;;6.00;49.60;;;;;;5066971;28;20021;-76
2022/03/12 06:55:31;;;;;;;1.85;1.75;;;6.10;50.20;;;;;;5067989;28;20032;-76
2022/03/12 06:57:58;;;;;;;0.10;0.10;;;6.10;50.10;;;;;;5067521;28;20382;-75
2022/03/12 07:00:26;;;;;;;0.20;0.20;;;6.10;49.30;;;;;;5071554;28;20044;-75
2022/03/12 07:02:52;;;;;;;0.20;0.20;;;6.00;49.40;;;;;;5067610;28;20033;-76
2022/03/12 07:05:18;;;;;;;0.10;0.10;;;6.00;49.50;;;;;;5069136;28;20024;-77
2022/03/12 07:07:44;;;;;;;0.10;0.10;;;5.80;49.40;;;;;;5069962;28;20048;-75
2022/03/12 07:10:10;;;;;;;0.55;0.55;;;5.90;50.10;;;;;;5069171;28;20581;-75
2022/03/12 07:12:37;;;;;;;0.10;0.10;;;6.00;50.20;;;;;;5067295;28;20046;-76
2022/03/12 07:15:04;;;;;;;0.20;0.20;;;6.10;50.20;;;;;;5070029;28;20020;-76
2022/03/12 07:17:31;;;;;;;2.08;1.98;;;6.10;50.20;;;;;;5069897;28;20017;-75
2022/03/12 07:19:57;;;;;;;0.10;0.10;;;6.10;50.10;;;;;;5067205;28;20021;-75
2022/03/12 07:22:22;;;;;;;0.10;0.10;;;6.10;50.50;;;;;;5069650;28;20051;-76
2022/03/12 07:24:48;;;;;;;1.10;1.10;;;6.20;50.40;;;;;;5068633;28;20468;-76
2022/03/12 07:27:14;;;;;;;0.10;0.10;;;6.30;51.10;;;;;;5069665;28;20482;-76
2022/03/12 07:29:40;;;;;;;0.10;0.10;;;6.30;50.20;;;;;;5068010;28;20078;-76
2022/03/12 07:32:06;;;;;;;1.00;1.00;;;6.40;50.10;;;;;;5071256;28;20086;-75
2022/03/12 07:34:32;;;;;;;0.15;0.15;;;6.50;50.30;;;;;;5072186;28;20032;-75
2022/03/12 07:36:58;;;;;;;1.60;1.50;;;6.50;50.00;;;;;;5061637;28;20033;-76
2022/03/12 07:39:23;;;;;;;0.73;0.73;;;6.60;49.70;;;;;;5068764;28;20024;-76
2022/03/12 07:41:49;;;;;;;0.90;0.90;;;6.60;50.30;;;;;;5069359;28;20029;-75
2022/03/12 07:44:15;;;;;;;0.60;0.60;;;6.60;49.80;;;;;;5069234;28;20060;-75
2022/03/12 07:46:41;;;;;;;0.20;0.20;;;6.70;49.30;;;;;;5067026;28;20050;-76
2022/03/12 07:49:06;;;;;;;0.38;0.38;;;6.60;49.30;;;;;;5069612;28;20453;-76
2022/03/12 07:51:33;;;;;;;0.10;0.10;;;6.60;49.60;;;;;;5070402;28;20099;-75
2022/03/12 07:54:00;;;;;;;0.10;0.10;;;6.70;48.80;;;;;;5068107;28;20032;-76
2022/03/12 07:56:26;;;;;;;0.65;0.65;;;6.60;48.70;;;;;;5071333;28;20052;-77
2022/03/12 07:58:52;;;;;;;0.30;0.30;;;6.60;48.90;;;;;;5076615;28;20051;-77
2022/03/12 08:01:18;;;;;;;0.45;0.45;;;6.60;48.90;;;;;;5073686;28;20482;-77
2022/03/12 08:03:44;;;;;;;0.28;0.28;;;6.70;48.80;;;;;;5068248;28;20070;-77
2022/03/12 08:06:10;;;;;;;1.20;1.20;;;6.70;48.90;;;;;;5070829;28;20029;-76
2022/03/12 08:08:36;;;;;;;0.10;0.10;;;6.80;48.60;;;;;;5066481;28;20024;-75
2022/03/12 08:13:47;;;;;;;0.20;0.20;;;6.90;48.40;;;;;;5064358;28;20039;-75
2022/03/12 08:16:13;;;;;;;0.30;0.30;;;6.90;48.40;;;;;;5071036;28;20035;-75
2022/03/12 08:18:43;;;;;;;0.10;0.10;;;7.10;48.90;;;;;;5068228;28;20013;-76
2022/03/12 08:21:10;;;;;;;0.10;0.10;;;7.20;49.10;;;;;;5067439;28;20017;-75
2022/03/12 08:23:37;;;;;;;0.10;0.10;;;7.30;48.60;;;;;;5065346;28;20452;-75
2022/03/12 08:26:03;;;;;;;0.50;0.50;;;7.50;48.50;;;;;;5070034;28;20038;-80
2022/03/12 08:28:32;;;;;;;1.25;1.25;;;7.50;48.20;;;;;;5070958;28;20020;-77
2022/03/12 08:30:58;;;;;;;0.20;0.20;;;7.50;48.40;;;;;;5067887;28;20024;-75
2022/03/12 08:33:24;;;;;;;0.10;0.10;;;7.60;48.30;;;;;;5071001;28;20040;-76
2022/03/12 08:35:50;;;;;;;1.25;0.90;;;7.60;48.00;;;;;;5072412;28;20016;-76
2022/03/12 08:38:15;;;;;;;0.43;0.43;;;7.70;48.00;;;;;;5070389;28;20371;-77
2022/03/12 08:40:41;;;;;;;0.10;0.10;;;7.80;48.00;;;;;;5071778;28;20089;-77
2022/03/12 08:43:07;;;;;;;0.10;0.10;;;7.90;48.00;;;;;;5066989;28;20032;-75
2022/03/12 08:45:33;;;;;;;0.20;0.20;;;8.00;47.90;;;;;;5070196;28;20027;-74
2022/03/12 08:47:59;;;;;;;1.73;1.63;;;8.10;47.80;;;;;;5072269;28;20086;-76
2022/03/12 08:50:25;;;;;;;0.10;0.10;;;8.20;47.70;;;;;;5069239;28;20474;-76
2022/03/12 08:52:52;;;;;;;0.20;0.20;;;8.30;47.30;;;;;;5070867;28;20021;-77
2022/03/12 08:55:18;;;;;;;1.42;1.33;;;8.40;47.30;;;;;;5070496;28;20016;-75
2022/03/12 08:57:44;;;;;;;2.65;1.75;;;8.30;47.00;;;;;;5070079;28;20032;-78
2022/03/12 09:00:12;;;;;;;0.10;0.10;;;8.50;47.20;;;;;;5069488;28;20027;-75
2022/03/12 09:02:39;;;;;;;0.10;0.10;;;8.60;47.20;;;;;;5064985;28;20044;-78
2022/03/12 09:05:06;;;;;;;0.10;0.10;;;8.70;46.90;;;;;;5067431;28;20017;-69
2022/03/12 09:07:33;;;;;;;0.22;0.22;;;8.80;47.20;;;;;;5066803;28;20073;-68
2022/03/12 09:09:59;;;;;;;0.38;0.38;;;8.90;47.20;;;;;;5066631;28;20019;-69
2022/03/12 09:12:25;;;;;;;0.10;0.10;;;9.10;46.90;;;;;;5066385;28;20037;-69
2022/03/12 09:14:52;;;;;;;0.40;0.40;;;9.00;46.50;;;;;;5070391;28;20052;-68
2022/03/12 09:17:17;;;;;;;0.10;0.10;;;9.10;46.90;;;;;;5071025;28;20095;-68
2022/03/12 09:19:43;;;;;;;0.10;0.10;;;9.20;47.10;;;;;;5070256;28;20580;-68
2022/03/12 09:22:09;;;;;;;3.20;2.90;;;9.30;47.20;;;;;;5063472;28;20036;-68
2022/03/12 09:24:38;;;;;;;3.65;3.45;;;9.40;46.80;;;;;;5066018;28;20024;-70
2022/03/12 09:27:04;;;;;;;0.52;0.52;;;9.50;46.30;;;;;;5065872;28;20024;-68
2022/03/12 09:29:32;;;;;;;0.15;0.15;;;9.60;46.00;;;;;;5067688;28;20040;-68
2022/03/12 09:31:59;;;;;;;0.20;0.20;;;9.70;46.20;;;;;;5070692;28;20098;-68
2022/03/12 09:34:25;;;;;;;1.13;1.13;;;9.70;46.10;;;;;;5069745;28;20055;-69
2022/03/12 09:36:50;;;;;;;0.13;0.13;;;9.80;46.00;;;;;;5070294;28;20031;-68
2022/03/12 09:39:16;;;;;;;0.10;0.10;;;9.80;46.70;;;;;;5067133;28;20032;-69
2022/03/12 09:41:43;;;;;;;0.10;0.10;;;9.90;46.40;;;;;;5072491;28;20024;-69
2022/03/12 09:44:09;;;;;;;0.30;0.30;;;9.90;46.60;;;;;;5069201;28;20478;-68
2022/03/12 09:46:35;;;;;;;1.20;1.20;;;10.00;45.40;;;;;;5064401;28;20024;-69
2022/03/12 09:49:00;;;;;;;0.32;0.32;;;10.10;45.70;;;;;;5065827;28;20032;-68
2022/03/12 09:51:29;;;;;;;0.22;0.22;;;10.10;45.40;;;;;;5066684;28;20042;-68
2022/03/12 09:53:55;;;;;;;2.00;1.90;;;10.30;45.40;;;;;;5066902;28;20225;-69
2022/03/12 09:56:21;;;;;;;1.17;1.17;;;10.40;45.30;;;;;;5063141;28;20470;-68
2022/03/12 09:58:47;;;;;;;0.10;0.10;;;10.50;45.30;;;;;;5065684;28;20070;-71
2022/03/12 10:01:13;;;;;;;0.10;0.10;;;10.60;45.20;;;;;;5066293;28;20020;-70
2022/03/12 10:03:41;;;;;;;0.55;0.55;;;10.70;45.30;;;;;;5065056;28;20657;-71
2022/03/12 10:06:06;;;;;;;0.10;0.10;;;10.80;45.40;;;;;;5064491;28;20092;-68
2022/03/12 10:08:32;;;;;;;1.67;1.58;;;11.00;45.40;;;;;;5066368;28;20103;-69
2022/03/12 10:10:58;;;;;;;0.52;0.52;;;11.10;45.00;;;;;;5064556;28;20032;-69
2022/03/12 10:13:23;;;;;;;0.10;0.10;;;11.10;45.30;;;;;;5062067;28;20162;-69
2022/03/12 10:15:49;;;;;;;0.52;0.52;;;11.20;45.20;;;;;;5063857;28;20048;-70
2022/03/12 10:18:15;;;;;;;0.30;0.30;;;11.30;45.30;;;;;;5065955;28;20060;-72
2022/03/12 10:20:40;;;;;;;0.35;0.35;;;11.30;44.90;;;;;;5064151;28;20440;-68
2022/03/12 10:23:07;;;;;;;3.42;3.20;;;11.30;45.40;;;;;;5065207;28;20029;-71
2022/03/12 10:25:34;;;;;;;0.20;0.20;;;11.40;45.70;;;;;;5066307;28;20020;-71
2022/03/12 10:28:00;;;;;;;0.20;0.20;;;11.50;45.30;;;;;;5062520;28;20020;-67
2022/03/12 10:30:25;;;;;;;0.20;0.20;;;11.50;45.40;;;;;;5066067;28;20104;-68
2022/03/12 10:32:51;;;;;;;0.10;0.10;;;11.60;45.50;;;;;;5065897;28;20112;-69
2022/03/12 10:35:19;;;;;;;1.33;1.33;;;11.70;45.30;;;;;;5065170;28;20025;-69
2022/03/12 10:37:47;;;;;;;0.17;0.17;;;11.80;45.70;;;;;;5065431;28;20021;-69
2022/03/12 10:40:26;;;;;;;0.10;0.10;;;11.80;45.80;;;;;;5066969;28;20394;-69
2022/03/12 10:42:54;;;;;;;0.10;0.10;;;11.80;45.70;;;;;;5063942;28;20025;-70
2022/03/12 10:45:28;;;;;;;0.10;0.10;;;11.80;45.60;;;;;;5060489;28;20407;-70
2022/03/12 10:47:57;;;;;;;0.13;0.13;;;12.00;45.90;;;;;;5077622;28;20043;-69
2022/03/12 10:50:28;;;;;;;1.58;1.48;;;12.00;45.80;;;;;;5063262;28;20020;-69
2022/03/12 10:52:56;;;;;;;0.17;0.17;;;12.10;46.10;;;;;;5063115;28;20095;-69
2022/03/12 10:55:30;;;;;;;0.20;0.20;;;12.20;45.90;;;;;;5061933;28;20055;-69
2022/03/12 10:58:03;;;;;;;0.93;0.93;;;12.20;45.80;;;;;;5065313;28;20031;-69
2022/03/12 11:00:32;;;;;;;0.20;0.20;;;12.30;46.10;;;;;;5064431;28;20091;-69
2022/03/12 11:03:01;;;;;;;0.10;0.10;;;12.40;45.50;;;;;;5063478;28;20017;-69
2022/03/12 11:05:35;;;;;;;0.80;0.80;;;12.40;46.30;;;;;;5064818;28;20071;-69
2022/03/12 11:08:21;;;;;;;0.63;0.63;;;12.60;46.50;;;;;;5063121;28;21557;-70
2022/03/12 11:10:51;;;;;;;0.10;0.10;;;12.70;46.00;;;;;;5062442;28;20021;-70
2022/03/12 11:13:34;;;;;;;0.10;0.10;;;12.70;46.40;;;;;;5068074;28;20134;-69
2022/03/12 11:16:24;;;;;;;0.10;0.10;;;12.70;46.80;;;;;;5067716;28;20024;-69
2022/03/12 11:18:52;;;;;;;0.50;0.50;;;12.80;47.50;;;;;;5061226;28;20035;-71
2022/03/12 11:21:51;;;;;;;0.50;0.50;;;12.80;47.90;;;;;;5063516;28;20036;-69
2022/03/12 11:24:27;;;;;;;1.13;1.13;;;12.90;49.20;;;;;;5048641;28;20036;-69
2022/03/12 11:26:58;;;;;;;0.65;0.65;;;13.10;49.60;;;;;;5067755;28;20020;-70
2022/03/12 11:29:27;;;;;;;0.20;0.20;;;13.20;49.30;;;;;;5063203;28;20073;-71
2022/03/12 11:32:02;;;;;;;0.10;0.10;;;13.20;49.10;;;;;;5071767;28;20024;-70
2022/03/12 11:34:39;;;;;;;0.10;0.10;;;13.20;49.10;;;;;;5071712;28;20644;-68
2022/03/12 11:37:14;;;;;;;0.10;0.10;;;13.20;48.90;;;;;;5064749;28;20032;-69
2022/03/12 11:39:48;;;;;;;0.10;0.10;;;13.30;49.40;;;;;;5073448;28;20474;-69
2022/03/12 11:42:20;;;;;;;0.63;0.63;;;13.40;49.40;;;;;;5063346;28;20029;-69
2022/03/12 11:44:53;;;;;;;2.15;1.13;;;13.50;49.00;;;;;;5061200;28;20033;-70
2022/03/12 11:47:28;;;;;;;0.10;0.10;;;13.50;49.00;;;;;;5071744;28;20028;-75
2022/03/12 11:49:56;;;;;;;0.10;0.10;;;13.60;49.00;;;;;;5071997;28;20533;-69
2022/03/12 11:52:22;;;;;;;0.10;0.10;;;13.60;49.00;;;;;;5066389;28;20025;-70
2022/03/12 11:54:52;;;;;;;0.30;0.30;;;13.70;48.70;;;;;;5072207;28;20028;-70
2022/03/12 11:57:30;;;;;;;1.08;1.08;;;13.70;48.70;;;;;;5071632;28;20048;-69
2022/03/12 11:59:57;;;;;;;11.82;5.05;;;13.80;49.10;;;;;;5072581;28;20048;-71
2022/03/12 12:02:30;;;;;;;0.10;0.10;;;13.90;49.20;;;;;;5069868;28;20021;-69
2022/03/12 12:04:58;;;;;;;0.10;0.10;;;14.00;49.20;;;;;;5071195;28;20042;-70
2022/03/12 12:07:24;;;;;;;0.10;0.10;;;13.90;49.70;;;;;;5071753;28;20028;-69
2022/03/12 12:09:51;;;;;;;0.10;0.10;;;13.90;50.70;;;;;;5070670;28;20021;-69
2022/03/12 12:12:19;;;;;;;0.10;0.10;;;14.10;50.20;;;;;;5069154;28;20025;-69
2022/03/12 12:14:45;;;;;;;0.40;0.40;;;14.10;50.00;;;;;;5070367;28;20030;-69
2022/03/12 12:17:11;;;;;;;0.10;0.10;;;14.30;50.30;;;;;;5071708;28;20021;-69
2022/03/12 12:19:37;;;;;;;1.95;1.85;;;14.30;49.90;;;;;;5069985;28;20473;-69
2022/03/12 12:22:06;;;;;;;0.10;0.10;;;14.40;49.60;;;;;;5068512;28;20023;-69
2022/03/12 12:24:39;;;;;;;2.40;2.30;;;14.40;49.20;;;;;;5071432;28;20033;-69
2022/03/12 12:27:09;;;;;;;0.10;0.10;;;14.50;49.70;;;;;;5065122;28;20032;-69
2022/03/12 12:29:41;;;;;;;0.10;0.10;;;14.40;49.00;;;;;;5065509;28;20044;-69
2022/03/12 12:32:21;;;;;;;0.25;0.25;;;14.40;49.10;;;;;;5066471;28;20025;-69
2022/03/12 12:35:22;;;;;;;0.40;0.40;;;14.50;48.80;;;;;;5068969;28;20031;-72
2022/03/12 12:38:04;;;;;;;0.10;0.10;;;14.60;49.00;;;;;;5064355;28;20042;-70
2022/03/12 12:40:53;;;;;;;0.10;0.10;;;14.70;49.60;;;;;;5067789;28;20021;-70
2022/03/12 12:43:34;;;;;;;0.10;0.10;;;14.80;49.20;;;;;;5067191;28;20210;-69
2022/03/12 12:46:10;;;;;;;0.30;0.30;;;14.90;49.10;;;;;;5063206;28;20025;-70
2022/03/12 12:48:41;;;;;;;1.00;1.00;;;14.70;50.40;;;;;;5064643;28;20048;-69
2022/03/12 12:51:20;;;;;;;0.10;0.10;;;14.70;50.80;;;;;;5067783;28;20025;-70
2022/03/12 12:53:48;;;;;;;0.10;0.10;;;14.70;50.90;;;;;;5066828;28;20047;-68
2022/03/12 12:56:30;;;;;;;1.85;1.75;;;14.70;50.90;;;;;;5065073;28;20021;-68
2022/03/12 12:58:57;;;;;;;0.10;0.10;;;14.90;51.00;;;;;;5065796;28;20024;-70
2022/03/12 13:01:32;;;;;;;1.08;1.08;;;15.20;50.40;;;;;;5066177;28;20070;-70
2022/03/12 13:03:58;;;;;;;0.20;0.20;;;15.40;50.30;;;;;;5065063;28;20379;-71